Cap Palliser — A8OH4 — position and weather

sailwx.info

Track history (hours):
 
Tides and Currents Weather Stations Pressure Air Temp Water Temp Dewpoint Dewpoint Depression Visibility Wind Speed Wind Dir Waves Ship Positions

Cap Palliser

Last reported at 2017-Sep-17 08:36 UTC. Time now 2017-Sep-20 21:58 UTC.
Position N 30°52' W 118°26'.

Length 170 m; beam 27 m; draft 11.3 m.

Type: Cargo ship. MMSI: 636016647.

Date/timePositionNaut miles runAvg speedWind from/ knotsBaromVisibWave heightAir tempDewpointWater temp
2017-Sep-17 08:36N 30°52' W 118°26'216.3
2017-Sep-17 08:30N 30°53' W 118°27'1116.8
2017-Sep-17 07:53N 31°02' W 118°35'1417.0
2017-Sep-17 07:02N 31°13' W 118°45'416.9
2017-Sep-17 06:47N 31°16' W 118°48'4516.5
2017-Sep-17 04:05N 31°52' W 119°19'216.3
2017-Sep-17 03:59N 31°54' W 119°20'1016.5
2017-Sep-17 03:24N 32°01' W 119°27'616.6
2017-Sep-17 03:01N 32°06' W 119°32'1016.6
2017-Sep-17 02:26N 32°14' W 119°38'816.5
2017-Sep-17 01:58N 32°20' W 119°44'716.5
2017-Sep-17 01:30N 32°26' W 119°49'816.3
2017-Sep-17 01:00N 32°33' W 119°55'1816.3
2017-Sep-16 23:54N 32°47' W 120°08'816.3
2017-Sep-16 23:25N 32°54' W 120°13'816.6
2017-Sep-16 22:58N 32°60' W 120°18'817.1
2017-Sep-16 22:30N 33°06' W 120°24'816.8
2017-Sep-16 22:00N 33°13' W 120°30'816.6
2017-Sep-16 21:30N 33°19' W 120°36'816.6
2017-Sep-16 21:00N 33°26' W 120°42'816.3
2017-Sep-16 20:31N 33°32' W 120°48'816.4
2017-Sep-16 20:00N 33°39' W 120°54'816.7
2017-Sep-16 19:31N 33°46' W 120°60'816.2
2017-Sep-16 19:00N 33°53' W 121°05'816.4
2017-Sep-16 18:30N 34°00' W 121°08'816.6
2017-Sep-16 18:01N 34°08' W 121°12'816.7
2017-Sep-16 17:30N 34°16' W 121°16'816.5
2017-Sep-16 17:00N 34°23' W 121°20'816.6
2017-Sep-16 16:30N 34°31' W 121°24'816.3
2017-Sep-16 16:00N 34°39' W 121°27'816.7
2017-Sep-16 15:31N 34°46' W 121°31'816.6
2017-Sep-16 15:00N 34°54' W 121°35'816.2
2017-Sep-16 14:30N 35°01' W 121°39'816.2
2017-Sep-16 14:00N 35°09' W 121°42'816.4
2017-Sep-16 13:30N 35°17' W 121°46'816.0
2017-Sep-16 13:01N 35°24' W 121°50'6616.3
2017-Sep-16 08:57N 36°25' W 122°22'1516.6
2017-Sep-16 08:02N 36°39' W 122°29'216.5
2017-Sep-16 07:56N 36°40' W 122°30'1916.4
2017-Sep-16 06:48N 36°58' W 122°38'516.5
2017-Sep-16 06:31N 37°02' W 122°40'816.4
2017-Sep-16 06:01N 37°10' W 122°43'815.7
2017-Sep-16 05:30N 37°18' W 122°44'611.1
2017-Sep-16 05:00N 37°24' W 122°43'510.9
2017-Sep-16 04:30N 37°29' W 122°43'510.9
2017-Sep-16 04:00N 37°35' W 122°43'510.8
2017-Sep-16 03:30N 37°40' W 122°43'510.7
2017-Sep-16 03:00N 37°45' W 122°40'611.3
2017-Sep-16 02:30N 37°47' W 122°34'612.7
2017-Sep-16 02:01N 37°50' W 122°27'510.7
2017-Sep-16 01:30N 37°48' W 122°20'2 4.8
2017-Sep-16 01:00N 37°48' W 122°17'1 1.9
2017-Sep-16 00:29N 37°48' W 122°19'0 0.0
2017-Sep-15 23:59N 37°48' W 122°19'0 0.0
2017-Sep-15 23:29N 37°48' W 122°19'0 0.0
2017-Sep-15 22:59N 37°48' W 122°19'0 0.0
2017-Sep-15 22:29N 37°48' W 122°19'0 0.0
2017-Sep-15 21:59N 37°48' W 122°19'0 0.0
2017-Sep-15 21:29N 37°48' W 122°19'0 0.0
2017-Sep-15 20:59N 37°48' W 122°19'0 0.0
2017-Sep-15 20:29N 37°48' W 122°19'0 0.0
2017-Sep-15 19:59N 37°48' W 122°19'0 0.0
2017-Sep-15 19:29N 37°48' W 122°19'0 0.0
2017-Sep-15 18:59N 37°48' W 122°19'0 0.0
2017-Sep-15 18:29N 37°48' W 122°19'0 0.0
2017-Sep-15 17:59N 37°48' W 122°19'0 0.0
2017-Sep-15 17:29N 37°48' W 122°19'0 0.0
2017-Sep-15 16:59N 37°48' W 122°19'0 0.0
2017-Sep-15 16:29N 37°48' W 122°19'0 0.0
2017-Sep-15 15:59N 37°48' W 122°19'0 0.0
2017-Sep-15 15:29N 37°48' W 122°19'0 0.0
2017-Sep-15 14:59N 37°48' W 122°19'0 0.0
2017-Sep-15 14:29N 37°48' W 122°19'0 0.0
2017-Sep-15 13:59N 37°48' W 122°19'0 0.0
2017-Sep-15 13:29N 37°48' W 122°19'0 0.0
2017-Sep-15 12:59N 37°48' W 122°19'0 0.0
2017-Sep-15 12:29N 37°48' W 122°19'1 1.3
2017-Sep-15 12:00N 37°48' W 122°19'4 7.8
2017-Sep-15 11:31N 37°49' W 122°24'714.6
2017-Sep-15 11:01N 37°47' W 122°33'612.8
2017-Sep-15 10:31N 37°44' W 122°40'4 8.9
2017-Sep-15 10:01N 37°40' W 122°39'4 8.0
2017-Sep-15 09:31N 37°36' W 122°40'5 9.7
2017-Sep-15 09:00N 37°31' W 122°40'5 9.8
2017-Sep-15 08:30N 37°26' W 122°39'5 9.9
2017-Sep-15 08:00N 37°21' W 122°40'5 9.7
2017-Sep-15 07:31N 37°16' W 122°40'611.1
2017-Sep-15 07:00N 37°11' W 122°39'611.6
2017-Sep-15 06:30N 37°05' W 122°37'611.9
2017-Sep-15 06:00N 36°60' W 122°34'612.0
2017-Sep-15 05:29N 36°54' W 122°31'612.0
2017-Sep-15 05:00N 36°49' W 122°28'611.6
2017-Sep-15 04:30N 36°43' W 122°26'611.7
2017-Sep-15 04:00N 36°38' W 122°23'611.7
2017-Sep-15 03:30N 36°33' W 122°20'611.7
2017-Sep-15 03:00N 36°27' W 122°17'611.9
2017-Sep-15 02:30N 36°22' W 122°15'611.8
2017-Sep-15 02:00N 36°16' W 122°12'611.6
2017-Sep-15 01:30N 36°11' W 122°08'510.9
2017-Sep-15 01:00N 36°06' W 122°05'510.6
2017-Sep-15 00:30N 36°02' W 122°02'510.4
2017-Sep-15 00:00N 35°57' W 121°58'510.7
2017-Sep-14 23:30N 35°53' W 121°55'611.1
2017-Sep-14 23:00N 35°48' W 121°51'611.4
2017-Sep-14 22:30N 35°43' W 121°48'611.2
2017-Sep-14 22:00N 35°38' W 121°45'611.2
2017-Sep-14 21:30N 35°33' W 121°41'611.3
2017-Sep-14 21:00N 35°29' W 121°37'611.2
2017-Sep-14 20:30N 35°24' W 121°34'611.5
2017-Sep-14 20:01N 35°19' W 121°30'611.3
2017-Sep-14 19:30N 35°14' W 121°26'611.5
2017-Sep-14 18:57N 35°09' W 121°22'511.8
2017-Sep-14 18:30N 35°04' W 121°19'611.5
2017-Sep-14 18:00N 34°59' W 121°16'612.1
2017-Sep-14 17:30N 34°54' W 121°12'612.1
2017-Sep-14 17:00N 34°49' W 121°08'612.1
2017-Sep-14 16:30N 34°43' W 121°05'612.2
2017-Sep-14 16:01N 34°38' W 121°01'612.0
2017-Sep-14 15:30N 34°33' W 120°57'612.4
2017-Sep-14 15:01N 34°28' W 120°53'611.7
2017-Sep-14 14:30N 34°25' W 120°47'612.5
2017-Sep-14 14:00N 34°23' W 120°40'612.2
2017-Sep-14 13:29N 34°22' W 120°32'612.6
2017-Sep-14 13:00N 34°20' W 120°25'612.6
2017-Sep-14 12:30N 34°18' W 120°18'612.4
2017-Sep-14 12:00N 34°17' W 120°10'611.9
2017-Sep-14 11:30N 34°15' W 120°04'611.6
2017-Sep-14 10:59N 34°14' W 119°57'511.6
2017-Sep-14 10:30N 34°12' W 119°50'611.5
2017-Sep-14 10:00N 34°10' W 119°43'611.3
2017-Sep-14 09:31N 34°09' W 119°37'611.7
2017-Sep-14 09:00N 34°08' W 119°30'611.6
2017-Sep-14 08:27N 34°06' W 119°23'511.3
2017-Sep-14 08:00N 34°04' W 119°17'712.0
2017-Sep-14 07:26N 34°01' W 119°09'512.3
2017-Sep-14 07:00N 33°59' W 119°04'612.0
2017-Sep-14 06:30N 33°56' W 118°57'611.5
2017-Sep-14 06:00N 33°53' W 118°51'611.9
2017-Sep-14 05:30N 33°50' W 118°45'811.8
2017-Sep-14 04:51N 33°46' W 118°37'411.8
2017-Sep-14 04:31N 33°44' W 118°33'611.4
2017-Sep-14 04:00N 33°41' W 118°27'611.4
2017-Sep-14 03:31N 33°38' W 118°21'611.5
2017-Sep-14 02:59N 33°38' W 118°14'4 8.8
2017-Sep-14 02:30N 33°42' W 118°11'4 7.7
2017-Sep-14 02:00N 33°45' W 118°13'1 2.5
2017-Sep-14 01:31N 33°46' W 118°14'0 0.3
2017-Sep-14 01:00N 33°46' W 118°14'0 0.0
2017-Sep-14 00:24N 33°46' W 118°14'0 0.0
2017-Sep-14 00:00N 33°46' W 118°14'0 0.0
2017-Sep-13 23:30N 33°46' W 118°14'0 0.0
2017-Sep-13 22:54N 33°46' W 118°14'0 0.0
2017-Sep-13 22:30N 33°46' W 118°14'0 0.0
2017-Sep-13 22:00N 33°46' W 118°14'0 0.0
2017-Sep-13 21:24N 33°46' W 118°14'0 0.0
2017-Sep-13 21:00N 33°46' W 118°14'0 0.0
2017-Sep-13 20:30N 33°46' W 118°14'0 0.0
2017-Sep-13 20:00N 33°46' W 118°14'0 0.0
2017-Sep-13 19:30N 33°46' W 118°14'0 0.0
2017-Sep-13 18:42N 33°46' W 118°14'0 0.0
2017-Sep-13 18:30N 33°46' W 118°14'0 0.0
2017-Sep-13 17:57N 33°46' W 118°14'0 0.0
2017-Sep-13 17:30N 33°46' W 118°14'0 0.0
2017-Sep-13 17:00N 33°46' W 118°14'0 0.0
2017-Sep-13 16:30N 33°46' W 118°14'0 0.0
2017-Sep-13 16:00N 33°46' W 118°14'0 0.0
2017-Sep-13 15:24N 33°46' W 118°14'0 0.0
2017-Sep-13 15:00N 33°46' W 118°14'0 0.0
2017-Sep-13 14:30N 33°46' W 118°14'0 0.0
2017-Sep-13 13:47N 33°46' W 118°14'1 1.9
2017-Sep-13 13:28N 33°46' W 118°13'1 3.1
2017-Sep-13 13:00N 33°45' W 118°13'4 8.2
2017-Sep-13 12:30N 33°41' W 118°10'4 7.8
2017-Sep-13 12:00N 33°37' W 118°10'5 9.9
2017-Sep-13 11:30N 33°33' W 118°08'612.0
2017-Sep-13 11:00N 33°27' W 118°06'611.9
2017-Sep-13 10:30N 33°21' W 118°04'611.8
2017-Sep-13 10:00N 33°16' W 118°01'612.5
2017-Sep-13 09:30N 33°10' W 117°59'612.3
2017-Sep-13 09:00N 33°04' W 117°57'815.1
2017-Sep-13 08:30N 32°57' W 117°53'815.1
2017-Sep-13 08:01N 32°50' W 117°50'815.0
2017-Sep-13 07:30N 32°43' W 117°47'815.3
2017-Sep-13 07:01N 32°36' W 117°44'815.3
2017-Sep-13 06:31N 32°29' W 117°41'815.3
2017-Sep-13 06:00N 32°21' W 117°38'815.5
2017-Sep-13 05:31N 32°14' W 117°35'815.5
2017-Sep-13 04:58N 32°06' W 117°32'1415.5
2017-Sep-13 04:05N 31°53' W 117°26'315.6
2017-Sep-13 03:54N 31°51' W 117°25'615.4
2017-Sep-13 03:30N 31°45' W 117°22'1015.2
2017-Sep-13 02:50N 31°35' W 117°18'515.2
2017-Sep-13 02:31N 31°31' W 117°16'815.2
2017-Sep-13 02:00N 31°23' W 117°14'815.2
2017-Sep-13 01:28N 31°16' W 117°10'715.1
2017-Sep-13 01:01N 31°09' W 117°07'5914.4
2017-Sep-12 20:53N 30°13' W 116°44'  
Track history (hours):
 
Tides and Currents Weather Stations Pressure Air Temp Water Temp Dewpoint Dewpoint Depression Visibility Wind Speed Wind Dir Waves Ship Positions

Cap Palliser

Last reported at 2017-Sep-17 08:36 UTC. Time now 2017-Sep-20 21:58 UTC.
Position N 30°52' W 118°26'.

Length 170 m; beam 27 m; draft 11.3 m.

Type: Cargo ship. MMSI: 636016647.

Date/timePositionNaut miles runAvg speedWind from/ knotsBaromVisibWave heightAir tempDewpointWater temp
2017-Sep-17 08:36N 30°52' W 118°26'216.3
2017-Sep-17 08:30N 30°53' W 118°27'1116.8
2017-Sep-17 07:53N 31°02' W 118°35'1417.0
2017-Sep-17 07:02N 31°13' W 118°45'416.9
2017-Sep-17 06:47N 31°16' W 118°48'4516.5
2017-Sep-17 04:05N 31°52' W 119°19'216.3
2017-Sep-17 03:59N 31°54' W 119°20'1016.5
2017-Sep-17 03:24N 32°01' W 119°27'616.6
2017-Sep-17 03:01N 32°06' W 119°32'1016.6
2017-Sep-17 02:26N 32°14' W 119°38'816.5
2017-Sep-17 01:58N 32°20' W 119°44'716.5
2017-Sep-17 01:30N 32°26' W 119°49'816.3
2017-Sep-17 01:00N 32°33' W 119°55'1816.3
2017-Sep-16 23:54N 32°47' W 120°08'816.3
2017-Sep-16 23:25N 32°54' W 120°13'816.6
2017-Sep-16 22:58N 32°60' W 120°18'817.1
2017-Sep-16 22:30N 33°06' W 120°24'816.8
2017-Sep-16 22:00N 33°13' W 120°30'816.6
2017-Sep-16 21:30N 33°19' W 120°36'816.6
2017-Sep-16 21:00N 33°26' W 120°42'816.3
2017-Sep-16 20:31N 33°32' W 120°48'816.4
2017-Sep-16 20:00N 33°39' W 120°54'816.7
2017-Sep-16 19:31N 33°46' W 120°60'816.2
2017-Sep-16 19:00N 33°53' W 121°05'816.4
2017-Sep-16 18:30N 34°00' W 121°08'816.6
2017-Sep-16 18:01N 34°08' W 121°12'816.7
2017-Sep-16 17:30N 34°16' W 121°16'816.5
2017-Sep-16 17:00N 34°23' W 121°20'816.6
2017-Sep-16 16:30N 34°31' W 121°24'816.3
2017-Sep-16 16:00N 34°39' W 121°27'816.7
2017-Sep-16 15:31N 34°46' W 121°31'816.6
2017-Sep-16 15:00N 34°54' W 121°35'816.2
2017-Sep-16 14:30N 35°01' W 121°39'816.2
2017-Sep-16 14:00N 35°09' W 121°42'816.4
2017-Sep-16 13:30N 35°17' W 121°46'816.0
2017-Sep-16 13:01N 35°24' W 121°50'6616.3
2017-Sep-16 08:57N 36°25' W 122°22'1516.6
2017-Sep-16 08:02N 36°39' W 122°29'216.5
2017-Sep-16 07:56N 36°40' W 122°30'1916.4
2017-Sep-16 06:48N 36°58' W 122°38'516.5
2017-Sep-16 06:31N 37°02' W 122°40'816.4
2017-Sep-16 06:01N 37°10' W 122°43'815.7
2017-Sep-16 05:30N 37°18' W 122°44'611.1
2017-Sep-16 05:00N 37°24' W 122°43'510.9
2017-Sep-16 04:30N 37°29' W 122°43'510.9
2017-Sep-16 04:00N 37°35' W 122°43'510.8
2017-Sep-16 03:30N 37°40' W 122°43'510.7
2017-Sep-16 03:00N 37°45' W 122°40'611.3
2017-Sep-16 02:30N 37°47' W 122°34'612.7
2017-Sep-16 02:01N 37°50' W 122°27'510.7
2017-Sep-16 01:30N 37°48' W 122°20'2 4.8
2017-Sep-16 01:00N 37°48' W 122°17'1 1.9
2017-Sep-16 00:29N 37°48' W 122°19'0 0.0
2017-Sep-15 23:59N 37°48' W 122°19'0 0.0
2017-Sep-15 23:29N 37°48' W 122°19'0 0.0
2017-Sep-15 22:59N 37°48' W 122°19'0 0.0
2017-Sep-15 22:29N 37°48' W 122°19'0 0.0
2017-Sep-15 21:59N 37°48' W 122°19'0 0.0
2017-Sep-15 21:29N 37°48' W 122°19'0 0.0
2017-Sep-15 20:59N 37°48' W 122°19'0 0.0
2017-Sep-15 20:29N 37°48' W 122°19'0 0.0
2017-Sep-15 19:59N 37°48' W 122°19'0 0.0
2017-Sep-15 19:29N 37°48' W 122°19'0 0.0
2017-Sep-15 18:59N 37°48' W 122°19'0 0.0
2017-Sep-15 18:29N 37°48' W 122°19'0 0.0
2017-Sep-15 17:59N 37°48' W 122°19'0 0.0
2017-Sep-15 17:29N 37°48' W 122°19'0 0.0
2017-Sep-15 16:59N 37°48' W 122°19'0 0.0
2017-Sep-15 16:29N 37°48' W 122°19'0 0.0
2017-Sep-15 15:59N 37°48' W 122°19'0 0.0
2017-Sep-15 15:29N 37°48' W 122°19'0 0.0
2017-Sep-15 14:59N 37°48' W 122°19'0 0.0
2017-Sep-15 14:29N 37°48' W 122°19'0 0.0
2017-Sep-15 13:59N 37°48' W 122°19'0 0.0
2017-Sep-15 13:29N 37°48' W 122°19'0 0.0
2017-Sep-15 12:59N 37°48' W 122°19'0 0.0
2017-Sep-15 12:29N 37°48' W 122°19'1 1.3
2017-Sep-15 12:00N 37°48' W 122°19'4 7.8
2017-Sep-15 11:31N 37°49' W 122°24'714.6
2017-Sep-15 11:01N 37°47' W 122°33'612.8
2017-Sep-15 10:31N 37°44' W 122°40'4 8.9
2017-Sep-15 10:01N 37°40' W 122°39'4 8.0
2017-Sep-15 09:31N 37°36' W 122°40'5 9.7
2017-Sep-15 09:00N 37°31' W 122°40'5 9.8
2017-Sep-15 08:30N 37°26' W 122°39'5 9.9
2017-Sep-15 08:00N 37°21' W 122°40'5 9.7
2017-Sep-15 07:31N 37°16' W 122°40'611.1
2017-Sep-15 07:00N 37°11' W 122°39'611.6
2017-Sep-15 06:30N 37°05' W 122°37'611.9
2017-Sep-15 06:00N 36°60' W 122°34'612.0
2017-Sep-15 05:29N 36°54' W 122°31'612.0
2017-Sep-15 05:00N 36°49' W 122°28'611.6
2017-Sep-15 04:30N 36°43' W 122°26'611.7
2017-Sep-15 04:00N 36°38' W 122°23'611.7
2017-Sep-15 03:30N 36°33' W 122°20'611.7
2017-Sep-15 03:00N 36°27' W 122°17'611.9
2017-Sep-15 02:30N 36°22' W 122°15'611.8
2017-Sep-15 02:00N 36°16' W 122°12'611.6
2017-Sep-15 01:30N 36°11' W 122°08'510.9
2017-Sep-15 01:00N 36°06' W 122°05'510.6
2017-Sep-15 00:30N 36°02' W 122°02'510.4
2017-Sep-15 00:00N 35°57' W 121°58'510.7
2017-Sep-14 23:30N 35°53' W 121°55'611.1
2017-Sep-14 23:00N 35°48' W 121°51'611.4
2017-Sep-14 22:30N 35°43' W 121°48'611.2
2017-Sep-14 22:00N 35°38' W 121°45'611.2
2017-Sep-14 21:30N 35°33' W 121°41'611.3
2017-Sep-14 21:00N 35°29' W 121°37'611.2
2017-Sep-14 20:30N 35°24' W 121°34'611.5
2017-Sep-14 20:01N 35°19' W 121°30'611.3
2017-Sep-14 19:30N 35°14' W 121°26'611.5
2017-Sep-14 18:57N 35°09' W 121°22'511.8
2017-Sep-14 18:30N 35°04' W 121°19'611.5
2017-Sep-14 18:00N 34°59' W 121°16'612.1
2017-Sep-14 17:30N 34°54' W 121°12'612.1
2017-Sep-14 17:00N 34°49' W 121°08'612.1
2017-Sep-14 16:30N 34°43' W 121°05'612.2
2017-Sep-14 16:01N 34°38' W 121°01'612.0
2017-Sep-14 15:30N 34°33' W 120°57'612.4
2017-Sep-14 15:01N 34°28' W 120°53'611.7
2017-Sep-14 14:30N 34°25' W 120°47'612.5
2017-Sep-14 14:00N 34°23' W 120°40'612.2
2017-Sep-14 13:29N 34°22' W 120°32'612.6
2017-Sep-14 13:00N 34°20' W 120°25'612.6
2017-Sep-14 12:30N 34°18' W 120°18'612.4
2017-Sep-14 12:00N 34°17' W 120°10'611.9
2017-Sep-14 11:30N 34°15' W 120°04'611.6
2017-Sep-14 10:59N 34°14' W 119°57'511.6
2017-Sep-14 10:30N 34°12' W 119°50'611.5
2017-Sep-14 10:00N 34°10' W 119°43'611.3
2017-Sep-14 09:31N 34°09' W 119°37'611.7
2017-Sep-14 09:00N 34°08' W 119°30'611.6
2017-Sep-14 08:27N 34°06' W 119°23'511.3
2017-Sep-14 08:00N 34°04' W 119°17'712.0
2017-Sep-14 07:26N 34°01' W 119°09'512.3
2017-Sep-14 07:00N 33°59' W 119°04'612.0
2017-Sep-14 06:30N 33°56' W 118°57'611.5
2017-Sep-14 06:00N 33°53' W 118°51'611.9
2017-Sep-14 05:30N 33°50' W 118°45'811.8
2017-Sep-14 04:51N 33°46' W 118°37'411.8
2017-Sep-14 04:31N 33°44' W 118°33'611.4
2017-Sep-14 04:00N 33°41' W 118°27'611.4
2017-Sep-14 03:31N 33°38' W 118°21'611.5
2017-Sep-14 02:59N 33°38' W 118°14'4 8.8
2017-Sep-14 02:30N 33°42' W 118°11'4 7.7
2017-Sep-14 02:00N 33°45' W 118°13'1 2.5
2017-Sep-14 01:31N 33°46' W 118°14'0 0.3
2017-Sep-14 01:00N 33°46' W 118°14'0 0.0
2017-Sep-14 00:24N 33°46' W 118°14'0 0.0
2017-Sep-14 00:00N 33°46' W 118°14'0 0.0
2017-Sep-13 23:30N 33°46' W 118°14'0 0.0
2017-Sep-13 22:54N 33°46' W 118°14'0 0.0
2017-Sep-13 22:30N 33°46' W 118°14'0 0.0
2017-Sep-13 22:00N 33°46' W 118°14'0 0.0
2017-Sep-13 21:24N 33°46' W 118°14'0 0.0
2017-Sep-13 21:00N 33°46' W 118°14'0 0.0
2017-Sep-13 20:30N 33°46' W 118°14'0 0.0
2017-Sep-13 20:00N 33°46' W 118°14'0 0.0
2017-Sep-13 19:30N 33°46' W 118°14'0 0.0
2017-Sep-13 18:42N 33°46' W 118°14'0 0.0
2017-Sep-13 18:30N 33°46' W 118°14'0 0.0
2017-Sep-13 17:57N 33°46' W 118°14'0 0.0
2017-Sep-13 17:30N 33°46' W 118°14'0 0.0
2017-Sep-13 17:00N 33°46' W 118°14'0 0.0
2017-Sep-13 16:30N 33°46' W 118°14'0 0.0
2017-Sep-13 16:00N 33°46' W 118°14'0 0.0
2017-Sep-13 15:24N 33°46' W 118°14'0 0.0
2017-Sep-13 15:00N 33°46' W 118°14'0 0.0
2017-Sep-13 14:30N 33°46' W 118°14'0 0.0
2017-Sep-13 13:47N 33°46' W 118°14'1 1.9
2017-Sep-13 13:28N 33°46' W 118°13'1 3.1
2017-Sep-13 13:00N 33°45' W 118°13'4 8.2
2017-Sep-13 12:30N 33°41' W 118°10'4 7.8
2017-Sep-13 12:00N 33°37' W 118°10'5 9.9
2017-Sep-13 11:30N 33°33' W 118°08'612.0
2017-Sep-13 11:00N 33°27' W 118°06'611.9
2017-Sep-13 10:30N 33°21' W 118°04'611.8
2017-Sep-13 10:00N 33°16' W 118°01'612.5
2017-Sep-13 09:30N 33°10' W 117°59'612.3
2017-Sep-13 09:00N 33°04' W 117°57'815.1
2017-Sep-13 08:30N 32°57' W 117°53'815.1
2017-Sep-13 08:01N 32°50' W 117°50'815.0
2017-Sep-13 07:30N 32°43' W 117°47'815.3
2017-Sep-13 07:01N 32°36' W 117°44'815.3
2017-Sep-13 06:31N 32°29' W 117°41'815.3
2017-Sep-13 06:00N 32°21' W 117°38'815.5
2017-Sep-13 05:31N 32°14' W 117°35'815.5
2017-Sep-13 04:58N 32°06' W 117°32'1415.5
2017-Sep-13 04:05N 31°53' W 117°26'315.6
2017-Sep-13 03:54N 31°51' W 117°25'615.4
2017-Sep-13 03:30N 31°45' W 117°22'1015.2
2017-Sep-13 02:50N 31°35' W 117°18'515.2
2017-Sep-13 02:31N 31°31' W 117°16'815.2
2017-Sep-13 02:00N 31°23' W 117°14'815.2
2017-Sep-13 01:28N 31°16' W 117°10'715.1
2017-Sep-13 01:01N 31°09' W 117°07'5914.4
2017-Sep-12 20:53N 30°13' W 116°44'  

Dump ship's entire track history